sensor_id;sensor_type;location;lat;lon;timestamp;P1;durP1;ratioP1;P2;durP2;ratioP2
45065;SDS011;30830;53.704;10.004;2023-02-15T00:00:25;52.38;;;30.08;;
45065;SDS011;30830;53.704;10.004;2023-02-15T00:02:51;50.42;;;29.08;;
45065;SDS011;30830;53.704;10.004;2023-02-15T00:05:17;54.90;;;30.67;;
45065;SDS011;30830;53.704;10.004;2023-02-15T00:07:42;63.10;;;31.13;;
45065;SDS011;30830;53.704;10.004;2023-02-15T00:10:08;45.95;;;28.67;;
45065;SDS011;30830;53.704;10.004;2023-02-15T00:12:34;66.10;;;30.92;;
45065;SDS011;30830;53.704;10.004;2023-02-15T00:14:59;55.28;;;30.25;;
45065;SDS011;30830;53.704;10.004;2023-02-15T00:17:28;69.22;;;31.63;;
45065;SDS011;30830;53.704;10.004;2023-02-15T00:19:53;53.55;;;31.17;;
45065;SDS011;30830;53.704;10.004;2023-02-15T00:22:19;54.40;;;30.73;;
45065;SDS011;30830;53.704;10.004;2023-02-15T00:24:45;51.05;;;29.55;;
45065;SDS011;30830;53.704;10.004;2023-02-15T00:27:10;61.92;;;29.77;;
45065;SDS011;30830;53.704;10.004;2023-02-15T00:29:36;54.55;;;29.10;;
45065;SDS011;30830;53.704;10.004;2023-02-15T00:32:01;51.35;;;29.48;;
45065;SDS011;30830;53.704;10.004;2023-02-15T00:34:27;58.83;;;30.40;;
45065;SDS011;30830;53.704;10.004;2023-02-15T00:36:53;54.38;;;30.20;;
45065;SDS011;30830;53.704;10.004;2023-02-15T00:39:19;58.95;;;32.30;;
45065;SDS011;30830;53.704;10.004;2023-02-15T00:41:45;65.70;;;31.77;;
45065;SDS011;30830;53.704;10.004;2023-02-15T00:44:11;55.85;;;30.88;;
45065;SDS011;30830;53.704;10.004;2023-02-15T00:46:37;54.42;;;30.70;;
45065;SDS011;30830;53.704;10.004;2023-02-15T00:49:03;57.03;;;33.25;;
45065;SDS011;30830;53.704;10.004;2023-02-15T00:51:29;51.33;;;30.15;;
45065;SDS011;30830;53.704;10.004;2023-02-15T00:53:55;62.45;;;31.60;;
45065;SDS011;30830;53.704;10.004;2023-02-15T00:56:20;54.47;;;30.75;;
45065;SDS011;30830;53.704;10.004;2023-02-15T00:58:46;67.38;;;32.65;;
45065;SDS011;30830;53.704;10.004;2023-02-15T01:01:16;56.47;;;30.88;;
45065;SDS011;30830;53.704;10.004;2023-02-15T01:03:42;54.78;;;30.90;;
45065;SDS011;30830;53.704;10.004;2023-02-15T01:06:09;57.28;;;29.85;;
45065;SDS011;30830;53.704;10.004;2023-02-15T01:08:35;53.22;;;29.00;;
45065;SDS011;30830;53.704;10.004;2023-02-15T01:11:11;55.92;;;31.23;;
45065;SDS011;30830;53.704;10.004;2023-02-15T01:13:40;51.53;;;29.23;;
45065;SDS011;30830;53.704;10.004;2023-02-15T01:16:06;57.78;;;30.30;;
45065;SDS011;30830;53.704;10.004;2023-02-15T01:18:32;54.88;;;29.50;;
45065;SDS011;30830;53.704;10.004;2023-02-15T01:20:58;56.92;;;32.30;;
45065;SDS011;30830;53.704;10.004;2023-02-15T01:23:24;56.40;;;31.88;;
45065;SDS011;30830;53.704;10.004;2023-02-15T01:25:50;53.45;;;30.77;;
45065;SDS011;30830;53.704;10.004;2023-02-15T01:28:15;53.92;;;29.98;;
45065;SDS011;30830;53.704;10.004;2023-02-15T01:30:41;60.40;;;30.63;;
45065;SDS011;30830;53.704;10.004;2023-02-15T01:33:06;54.83;;;32.00;;
45065;SDS011;30830;53.704;10.004;2023-02-15T01:35:32;57.30;;;30.30;;
45065;SDS011;30830;53.704;10.004;2023-02-15T01:37:58;52.35;;;28.95;;
45065;SDS011;30830;53.704;10.004;2023-02-15T01:40:23;53.50;;;29.85;;
45065;SDS011;30830;53.704;10.004;2023-02-15T01:42:50;54.33;;;31.25;;
45065;SDS011;30830;53.704;10.004;2023-02-15T01:45:27;55.20;;;28.23;;
45065;SDS011;30830;53.704;10.004;2023-02-15T01:47:58;55.50;;;30.20;;
45065;SDS011;30830;53.704;10.004;2023-02-15T01:50:47;54.50;;;30.40;;
45065;SDS011;30830;53.704;10.004;2023-02-15T01:53:20;54.45;;;31.02;;
45065;SDS011;30830;53.704;10.004;2023-02-15T01:58:27;59.80;;;30.92;;
45065;SDS011;30830;53.704;10.004;2023-02-15T02:00:56;50.47;;;29.52;;
45065;SDS011;30830;53.704;10.004;2023-02-15T02:03:36;54.50;;;30.58;;
45065;SDS011;30830;53.704;10.004;2023-02-15T02:06:04;49.67;;;29.23;;
45065;SDS011;30830;53.704;10.004;2023-02-15T02:08:29;54.58;;;30.48;;
45065;SDS011;30830;53.704;10.004;2023-02-15T02:10:56;62.33;;;29.73;;
45065;SDS011;30830;53.704;10.004;2023-02-15T02:13:21;51.65;;;28.20;;
45065;SDS011;30830;53.704;10.004;2023-02-15T02:15:49;49.72;;;28.45;;
45065;SDS011;30830;53.704;10.004;2023-02-15T02:18:20;50.80;;;29.13;;
45065;SDS011;30830;53.704;10.004;2023-02-15T02:26:42;53.38;;;28.63;;
45065;SDS011;30830;53.704;10.004;2023-02-15T02:32:23;50.47;;;29.63;;
45065;SDS011;30830;53.704;10.004;2023-02-15T02:35:10;53.60;;;29.02;;
45065;SDS011;30830;53.704;10.004;2023-02-15T02:37:50;62.17;;;28.83;;
45065;SDS011;30830;53.704;10.004;2023-02-15T02:43:15;51.15;;;27.20;;
45065;SDS011;30830;53.704;10.004;2023-02-15T02:45:54;55.28;;;29.10;;
45065;SDS011;30830;53.704;10.004;2023-02-15T02:48:39;87.40;;;29.92;;
45065;SDS011;30830;53.704;10.004;2023-02-15T02:51:05;54.80;;;27.58;;
45065;SDS011;30830;53.704;10.004;2023-02-15T02:53:30;47.05;;;26.83;;
45065;SDS011;30830;53.704;10.004;2023-02-15T02:55:59;88.97;;;30.65;;
45065;SDS011;30830;53.704;10.004;2023-02-15T02:58:58;46.08;;;26.45;;
45065;SDS011;30830;53.704;10.004;2023-02-15T03:01:35;46.88;;;26.88;;
45065;SDS011;30830;53.704;10.004;2023-02-15T03:04:15;49.65;;;27.98;;
45065;SDS011;30830;53.704;10.004;2023-02-15T03:06:52;46.00;;;27.80;;
45065;SDS011;30830;53.704;10.004;2023-02-15T03:09:28;54.22;;;26.83;;
45065;SDS011;30830;53.704;10.004;2023-02-15T03:12:10;63.35;;;29.85;;
45065;SDS011;30830;53.704;10.004;2023-02-15T03:14:42;115.35;;;31.05;;
45065;SDS011;30830;53.704;10.004;2023-02-15T03:17:11;47.65;;;26.52;;
45065;SDS011;30830;53.704;10.004;2023-02-15T03:19:38;46.65;;;26.17;;
45065;SDS011;30830;53.704;10.004;2023-02-15T03:22:11;50.85;;;27.90;;
45065;SDS011;30830;53.704;10.004;2023-02-15T03:27:15;52.38;;;28.63;;
45065;SDS011;30830;53.704;10.004;2023-02-15T03:29:45;45.55;;;26.85;;
45065;SDS011;30830;53.704;10.004;2023-02-15T03:32:14;79.22;;;28.83;;
45065;SDS011;30830;53.704;10.004;2023-02-15T03:34:41;48.72;;;27.58;;
45065;SDS011;30830;53.704;10.004;2023-02-15T03:40:19;48.42;;;27.77;;
45065;SDS011;30830;53.704;10.004;2023-02-15T03:45:52;45.00;;;25.60;;
45065;SDS011;30830;53.704;10.004;2023-02-15T03:48:29;47.92;;;26.38;;
45065;SDS011;30830;53.704;10.004;2023-02-15T03:51:03;51.22;;;27.52;;
45065;SDS011;30830;53.704;10.004;2023-02-15T03:53:52;46.88;;;26.00;;
45065;SDS011;30830;53.704;10.004;2023-02-15T03:56:20;43.58;;;25.33;;
45065;SDS011;30830;53.704;10.004;2023-02-15T03:58:45;64.45;;;27.38;;
45065;SDS011;30830;53.704;10.004;2023-02-15T04:01:34;46.83;;;26.65;;
45065;SDS011;30830;53.704;10.004;2023-02-15T04:04:25;47.28;;;26.92;;
45065;SDS011;30830;53.704;10.004;2023-02-15T04:06:51;45.40;;;27.20;;
45065;SDS011;30830;53.704;10.004;2023-02-15T04:09:17;54.30;;;29.98;;
45065;SDS011;30830;53.704;10.004;2023-02-15T04:12:01;57.85;;;26.50;;
45065;SDS011;30830;53.704;10.004;2023-02-15T04:14:26;50.75;;;26.90;;
45065;SDS011;30830;53.704;10.004;2023-02-15T04:17:11;45.22;;;26.60;;
45065;SDS011;30830;53.704;10.004;2023-02-15T04:19:36;50.15;;;27.80;;
45065;SDS011;30830;53.704;10.004;2023-02-15T04:22:20;52.88;;;26.65;;
45065;SDS011;30830;53.704;10.004;2023-02-15T04:25:04;50.83;;;28.40;;
45065;SDS011;30830;53.704;10.004;2023-02-15T04:27:41;50.65;;;27.55;;
45065;SDS011;30830;53.704;10.004;2023-02-15T04:30:09;62.28;;;27.15;;
45065;SDS011;30830;53.704;10.004;2023-02-15T04:32:36;52.45;;;26.65;;
45065;SDS011;30830;53.704;10.004;2023-02-15T04:35:03;68.55;;;26.63;;
45065;SDS011;30830;53.704;10.004;2023-02-15T04:37:30;45.20;;;27.00;;
45065;SDS011;30830;53.704;10.004;2023-02-15T04:39:56;48.97;;;27.05;;
45065;SDS011;30830;53.704;10.004;2023-02-15T04:42:23;44.55;;;26.38;;
45065;SDS011;30830;53.704;10.004;2023-02-15T04:44:50;46.13;;;25.92;;
45065;SDS011;30830;53.704;10.004;2023-02-15T04:47:15;47.72;;;25.10;;
45065;SDS011;30830;53.704;10.004;2023-02-15T04:49:41;48.42;;;26.10;;
45065;SDS011;30830;53.704;10.004;2023-02-15T04:52:06;51.33;;;24.90;;
45065;SDS011;30830;53.704;10.004;2023-02-15T04:54:32;52.10;;;27.17;;
45065;SDS011;30830;53.704;10.004;2023-02-15T04:56:57;49.75;;;26.35;;
45065;SDS011;30830;53.704;10.004;2023-02-15T04:59:23;41.55;;;24.63;;
45065;SDS011;30830;53.704;10.004;2023-02-15T05:01:48;47.75;;;26.98;;
45065;SDS011;30830;53.704;10.004;2023-02-15T05:04:14;66.40;;;27.27;;
45065;SDS011;30830;53.704;10.004;2023-02-15T05:06:40;50.92;;;27.17;;
45065;SDS011;30830;53.704;10.004;2023-02-15T05:09:05;53.15;;;25.73;;
45065;SDS011;30830;53.704;10.004;2023-02-15T05:11:31;43.20;;;26.20;;
45065;SDS011;30830;53.704;10.004;2023-02-15T05:13:56;46.92;;;25.80;;
45065;SDS011;30830;53.704;10.004;2023-02-15T05:16:22;53.90;;;25.15;;
45065;SDS011;30830;53.704;10.004;2023-02-15T05:18:47;49.33;;;26.38;;
45065;SDS011;30830;53.704;10.004;2023-02-15T05:21:13;40.13;;;24.17;;
45065;SDS011;30830;53.704;10.004;2023-02-15T05:23:41;41.65;;;24.15;;
45065;SDS011;30830;53.704;10.004;2023-02-15T05:26:08;41.60;;;24.40;;
45065;SDS011;30830;53.704;10.004;2023-02-15T05:28:59;45.25;;;25.30;;
45065;SDS011;30830;53.704;10.004;2023-02-15T05:31:24;44.50;;;26.60;;
45065;SDS011;30830;53.704;10.004;2023-02-15T05:33:50;49.90;;;26.13;;
45065;SDS011;30830;53.704;10.004;2023-02-15T05:36:15;36.83;;;21.70;;
45065;SDS011;30830;53.704;10.004;2023-02-15T05:38:41;40.08;;;21.85;;
45065;SDS011;30830;53.704;10.004;2023-02-15T05:41:07;47.25;;;25.30;;
45065;SDS011;30830;53.704;10.004;2023-02-15T05:43:34;48.72;;;25.30;;
45065;SDS011;30830;53.704;10.004;2023-02-15T05:46:00;43.33;;;25.05;;
45065;SDS011;30830;53.704;10.004;2023-02-15T05:48:26;47.22;;;25.52;;
45065;SDS011;30830;53.704;10.004;2023-02-15T05:50:58;49.22;;;25.20;;
45065;SDS011;30830;53.704;10.004;2023-02-15T05:53:45;42.35;;;22.90;;
45065;SDS011;30830;53.704;10.004;2023-02-15T05:56:10;44.10;;;24.30;;
45065;SDS011;30830;53.704;10.004;2023-02-15T05:58:40;43.60;;;24.60;;
45065;SDS011;30830;53.704;10.004;2023-02-15T06:01:07;47.15;;;25.30;;
45065;SDS011;30830;53.704;10.004;2023-02-15T06:03:34;42.60;;;24.65;;
45065;SDS011;30830;53.704;10.004;2023-02-15T06:05:59;43.40;;;23.65;;
45065;SDS011;30830;53.704;10.004;2023-02-15T06:08:25;45.13;;;25.77;;
45065;SDS011;30830;53.704;10.004;2023-02-15T06:10:50;41.80;;;23.70;;
45065;SDS011;30830;53.704;10.004;2023-02-15T06:13:16;56.05;;;24.45;;
45065;SDS011;30830;53.704;10.004;2023-02-15T06:15:41;42.05;;;24.67;;
45065;SDS011;30830;53.704;10.004;2023-02-15T06:18:07;50.17;;;25.95;;
45065;SDS011;30830;53.704;10.004;2023-02-15T06:20:32;41.40;;;23.33;;
45065;SDS011;30830;53.704;10.004;2023-02-15T06:22:58;38.35;;;22.42;;
45065;SDS011;30830;53.704;10.004;2023-02-15T06:25:24;43.42;;;24.45;;
45065;SDS011;30830;53.704;10.004;2023-02-15T06:27:49;45.47;;;24.92;;
45065;SDS011;30830;53.704;10.004;2023-02-15T06:30:15;37.08;;;23.13;;
45065;SDS011;30830;53.704;10.004;2023-02-15T06:32:41;49.28;;;25.17;;
45065;SDS011;30830;53.704;10.004;2023-02-15T06:35:06;46.58;;;23.73;;
45065;SDS011;30830;53.704;10.004;2023-02-15T06:37:32;49.40;;;23.17;;
45065;SDS011;30830;53.704;10.004;2023-02-15T06:39:58;35.85;;;23.20;;
45065;SDS011;30830;53.704;10.004;2023-02-15T06:42:24;45.70;;;24.85;;
45065;SDS011;30830;53.704;10.004;2023-02-15T06:44:49;46.58;;;23.80;;
45065;SDS011;30830;53.704;10.004;2023-02-15T06:47:15;68.30;;;24.75;;
45065;SDS011;30830;53.704;10.004;2023-02-15T06:49:40;41.75;;;25.23;;
45065;SDS011;30830;53.704;10.004;2023-02-15T06:52:06;53.28;;;25.45;;
45065;SDS011;30830;53.704;10.004;2023-02-15T06:54:32;39.58;;;24.75;;
45065;SDS011;30830;53.704;10.004;2023-02-15T06:56:57;53.22;;;23.73;;
45065;SDS011;30830;53.704;10.004;2023-02-15T06:59:23;34.40;;;22.33;;
45065;SDS011;30830;53.704;10.004;2023-02-15T07:01:48;36.55;;;22.48;;
45065;SDS011;30830;53.704;10.004;2023-02-15T07:04:14;48.40;;;23.63;;
45065;SDS011;30830;53.704;10.004;2023-02-15T07:06:40;39.80;;;23.55;;
45065;SDS011;30830;53.704;10.004;2023-02-15T07:09:05;40.47;;;24.00;;
45065;SDS011;30830;53.704;10.004;2023-02-15T07:11:31;37.53;;;24.10;;
45065;SDS011;30830;53.704;10.004;2023-02-15T07:14:16;37.88;;;23.55;;
45065;SDS011;30830;53.704;10.004;2023-02-15T07:16:42;38.28;;;23.65;;
45065;SDS011;30830;53.704;10.004;2023-02-15T07:19:08;47.03;;;24.92;;
45065;SDS011;30830;53.704;10.004;2023-02-15T07:21:34;33.13;;;21.13;;
45065;SDS011;30830;53.704;10.004;2023-02-15T07:24:00;37.63;;;21.90;;
45065;SDS011;30830;53.704;10.004;2023-02-15T07:26:26;46.65;;;21.27;;
45065;SDS011;30830;53.704;10.004;2023-02-15T07:28:52;37.30;;;22.67;;
45065;SDS011;30830;53.704;10.004;2023-02-15T07:31:17;31.88;;;22.67;;
45065;SDS011;30830;53.704;10.004;2023-02-15T07:33:43;36.20;;;22.65;;
45065;SDS011;30830;53.704;10.004;2023-02-15T07:36:09;37.92;;;25.08;;
45065;SDS011;30830;53.704;10.004;2023-02-15T07:38:37;37.72;;;23.38;;
45065;SDS011;30830;53.704;10.004;2023-02-15T07:41:06;45.05;;;25.13;;
45065;SDS011;30830;53.704;10.004;2023-02-15T07:43:34;39.70;;;23.00;;
45065;SDS011;30830;53.704;10.004;2023-02-15T07:46:02;61.88;;;22.67;;
45065;SDS011;30830;53.704;10.004;2023-02-15T07:48:29;41.08;;;21.83;;
45065;SDS011;30830;53.704;10.004;2023-02-15T07:50:58;33.35;;;21.58;;
45065;SDS011;30830;53.704;10.004;2023-02-15T07:53:24;41.65;;;23.10;;
45065;SDS011;30830;53.704;10.004;2023-02-15T07:55:50;30.92;;;19.33;;
45065;SDS011;30830;53.704;10.004;2023-02-15T07:58:17;43.95;;;23.00;;
45065;SDS011;30830;53.704;10.004;2023-02-15T08:00:43;50.15;;;23.13;;
45065;SDS011;30830;53.704;10.004;2023-02-15T08:03:26;35.90;;;23.27;;
45065;SDS011;30830;53.704;10.004;2023-02-15T08:05:57;31.90;;;21.05;;
45065;SDS011;30830;53.704;10.004;2023-02-15T08:08:24;36.60;;;23.00;;
45065;SDS011;30830;53.704;10.004;2023-02-15T08:11:01;32.30;;;22.23;;
45065;SDS011;30830;53.704;10.004;2023-02-15T08:13:46;35.53;;;22.17;;
45065;SDS011;30830;53.704;10.004;2023-02-15T08:16:19;62.25;;;23.33;;
45065;SDS011;30830;53.704;10.004;2023-02-15T08:18:49;32.88;;;20.70;;
45065;SDS011;30830;53.704;10.004;2023-02-15T08:21:15;34.33;;;21.85;;
45065;SDS011;30830;53.704;10.004;2023-02-15T08:23:41;48.40;;;23.05;;
45065;SDS011;30830;53.704;10.004;2023-02-15T08:26:06;80.93;;;23.85;;
45065;SDS011;30830;53.704;10.004;2023-02-15T08:28:32;40.65;;;24.55;;
45065;SDS011;30830;53.704;10.004;2023-02-15T08:31:07;37.72;;;22.88;;
45065;SDS011;30830;53.704;10.004;2023-02-15T08:33:34;43.97;;;22.70;;
45065;SDS011;30830;53.704;10.004;2023-02-15T08:36:08;41.42;;;22.60;;
45065;SDS011;30830;53.704;10.004;2023-02-15T08:38:38;66.50;;;24.85;;
45065;SDS011;30830;53.704;10.004;2023-02-15T08:43:41;41.60;;;23.75;;
45065;SDS011;30830;53.704;10.004;2023-02-15T08:46:07;35.53;;;23.73;;
45065;SDS011;30830;53.704;10.004;2023-02-15T08:48:34;43.03;;;23.15;;
45065;SDS011;30830;53.704;10.004;2023-02-15T08:51:04;40.88;;;24.40;;
45065;SDS011;30830;53.704;10.004;2023-02-15T08:53:31;39.90;;;23.27;;
45065;SDS011;30830;53.704;10.004;2023-02-15T08:55:57;40.13;;;23.98;;
45065;SDS011;30830;53.704;10.004;2023-02-15T08:58:23;57.83;;;26.13;;
45065;SDS011;30830;53.704;10.004;2023-02-15T09:00:49;50.67;;;24.40;;
45065;SDS011;30830;53.704;10.004;2023-02-15T09:03:15;40.47;;;24.35;;
45065;SDS011;30830;53.704;10.004;2023-02-15T09:05:41;74.95;;;23.35;;
45065;SDS011;30830;53.704;10.004;2023-02-15T09:08:06;45.03;;;25.00;;
45065;SDS011;30830;53.704;10.004;2023-02-15T09:10:32;33.35;;;22.42;;
45065;SDS011;30830;53.704;10.004;2023-02-15T09:12:58;39.45;;;23.75;;
45065;SDS011;30830;53.704;10.004;2023-02-15T09:15:23;37.38;;;23.38;;
45065;SDS011;30830;53.704;10.004;2023-02-15T09:17:49;33.97;;;23.30;;
45065;SDS011;30830;53.704;10.004;2023-02-15T09:20:14;39.83;;;22.65;;
45065;SDS011;30830;53.704;10.004;2023-02-15T09:22:40;40.95;;;23.15;;
45065;SDS011;30830;53.704;10.004;2023-02-15T09:25:05;54.58;;;25.98;;
45065;SDS011;30830;53.704;10.004;2023-02-15T09:27:31;49.47;;;23.63;;
45065;SDS011;30830;53.704;10.004;2023-02-15T09:29:57;37.60;;;25.38;;
45065;SDS011;30830;53.704;10.004;2023-02-15T09:32:22;50.35;;;26.20;;
45065;SDS011;30830;53.704;10.004;2023-02-15T09:34:48;42.20;;;26.25;;
45065;SDS011;30830;53.704;10.004;2023-02-15T09:37:13;53.97;;;26.73;;
45065;SDS011;30830;53.704;10.004;2023-02-15T09:39:39;42.10;;;27.27;;
45065;SDS011;30830;53.704;10.004;2023-02-15T09:50:15;47.22;;;27.63;;
45065;SDS011;30830;53.704;10.004;2023-02-15T09:55:54;43.10;;;27.25;;
45065;SDS011;30830;53.704;10.004;2023-02-15T09:58:58;45.83;;;25.67;;
45065;SDS011;30830;53.704;10.004;2023-02-15T10:10:11;43.95;;;28.02;;
45065;SDS011;30830;53.704;10.004;2023-02-15T10:13:24;44.58;;;26.63;;
45065;SDS011;30830;53.704;10.004;2023-02-15T10:26:31;40.22;;;25.30;;
45065;SDS011;30830;53.704;10.004;2023-02-15T10:31:48;48.85;;;29.48;;
45065;SDS011;30830;53.704;10.004;2023-02-15T10:34:17;52.25;;;31.13;;
45065;SDS011;30830;53.704;10.004;2023-02-15T10:42:09;59.92;;;32.22;;
45065;SDS011;30830;53.704;10.004;2023-02-15T10:52:57;61.88;;;31.90;;
45065;SDS011;30830;53.704;10.004;2023-02-15T11:00:39;52.03;;;31.52;;
45065;SDS011;30830;53.704;10.004;2023-02-15T11:08:17;62.40;;;34.88;;
45065;SDS011;30830;53.704;10.004;2023-02-15T11:10:46;59.33;;;34.50;;
45065;SDS011;30830;53.704;10.004;2023-02-15T11:13:17;56.05;;;31.77;;
45065;SDS011;30830;53.704;10.004;2023-02-15T11:18:31;60.83;;;35.63;;
45065;SDS011;30830;53.704;10.004;2023-02-15T11:21:01;57.05;;;32.17;;
45065;SDS011;30830;53.704;10.004;2023-02-15T11:23:29;57.47;;;32.70;;
45065;SDS011;30830;53.704;10.004;2023-02-15T11:28:27;59.72;;;34.10;;
45065;SDS011;30830;53.704;10.004;2023-02-15T11:31:00;53.88;;;32.20;;
45065;SDS011;30830;53.704;10.004;2023-02-15T11:33:38;60.50;;;33.75;;
45065;SDS011;30830;53.704;10.004;2023-02-15T11:36:18;60.42;;;34.03;;
45065;SDS011;30830;53.704;10.004;2023-02-15T11:38:47;52.17;;;32.28;;
45065;SDS011;30830;53.704;10.004;2023-02-15T11:41:18;57.90;;;33.03;;
45065;SDS011;30830;53.704;10.004;2023-02-15T11:46:38;53.80;;;34.08;;
45065;SDS011;30830;53.704;10.004;2023-02-15T11:49:09;56.38;;;33.42;;
45065;SDS011;30830;53.704;10.004;2023-02-15T11:51:58;60.55;;;35.58;;
45065;SDS011;30830;53.704;10.004;2023-02-15T11:54:28;60.03;;;32.22;;
45065;SDS011;30830;53.704;10.004;2023-02-15T11:56:58;58.33;;;33.53;;
45065;SDS011;30830;53.704;10.004;2023-02-15T11:59:32;53.47;;;32.95;;
45065;SDS011;30830;53.704;10.004;2023-02-15T12:02:02;53.17;;;32.50;;
45065;SDS011;30830;53.704;10.004;2023-02-15T12:04:38;54.20;;;34.88;;
45065;SDS011;30830;53.704;10.004;2023-02-15T12:07:11;52.97;;;32.53;;
45065;SDS011;30830;53.704;10.004;2023-02-15T12:09:48;60.38;;;36.13;;
45065;SDS011;30830;53.704;10.004;2023-02-15T12:15:45;59.97;;;34.92;;
45065;SDS011;30830;53.704;10.004;2023-02-15T12:18:56;60.25;;;36.40;;
45065;SDS011;30830;53.704;10.004;2023-02-15T12:21:14;56.72;;;35.22;;
45065;SDS011;30830;53.704;10.004;2023-02-15T12:23:54;54.35;;;34.28;;
45065;SDS011;30830;53.704;10.004;2023-02-15T12:28:52;59.58;;;35.25;;
45065;SDS011;30830;53.704;10.004;2023-02-15T12:31:24;53.38;;;34.72;;
45065;SDS011;30830;53.704;10.004;2023-02-15T12:34:03;54.95;;;34.65;;
45065;SDS011;30830;53.704;10.004;2023-02-15T12:36:43;55.85;;;33.83;;
45065;SDS011;30830;53.704;10.004;2023-02-15T12:39:16;61.10;;;34.88;;
45065;SDS011;30830;53.704;10.004;2023-02-15T12:41:46;56.47;;;34.30;;
45065;SDS011;30830;53.704;10.004;2023-02-15T12:44:33;57.05;;;34.55;;
45065;SDS011;30830;53.704;10.004;2023-02-15T12:51:59;57.67;;;35.88;;
45065;SDS011;30830;53.704;10.004;2023-02-15T12:54:33;54.95;;;33.08;;
45065;SDS011;30830;53.704;10.004;2023-02-15T12:57:17;57.13;;;35.85;;
45065;SDS011;30830;53.704;10.004;2023-02-15T12:59:51;56.28;;;34.65;;
45065;SDS011;30830;53.704;10.004;2023-02-15T13:02:23;56.15;;;34.72;;
45065;SDS011;30830;53.704;10.004;2023-02-15T13:04:55;53.50;;;32.22;;
45065;SDS011;30830;53.704;10.004;2023-02-15T13:07:23;61.72;;;34.40;;
45065;SDS011;30830;53.704;10.004;2023-02-15T13:09:54;56.65;;;33.60;;
45065;SDS011;30830;53.704;10.004;2023-02-15T13:12:21;55.10;;;32.80;;
45065;SDS011;30830;53.704;10.004;2023-02-15T13:14:53;54.20;;;33.05;;
45065;SDS011;30830;53.704;10.004;2023-02-15T13:17:24;56.50;;;33.20;;
45065;SDS011;30830;53.704;10.004;2023-02-15T13:19:54;51.08;;;32.83;;
45065;SDS011;30830;53.704;10.004;2023-02-15T13:22:41;54.28;;;33.53;;
45065;SDS011;30830;53.704;10.004;2023-02-15T13:25:13;51.65;;;32.00;;
45065;SDS011;30830;53.704;10.004;2023-02-15T13:27:44;52.35;;;31.95;;
45065;SDS011;30830;53.704;10.004;2023-02-15T13:32:47;53.70;;;32.25;;
45065;SDS011;30830;53.704;10.004;2023-02-15T13:35:16;45.88;;;31.58;;
45065;SDS011;30830;53.704;10.004;2023-02-15T13:40:55;45.70;;;30.10;;
45065;SDS011;30830;53.704;10.004;2023-02-15T13:46:41;50.53;;;31.38;;
45065;SDS011;30830;53.704;10.004;2023-02-15T14:06:41;48.65;;;31.90;;
45065;SDS011;30830;53.704;10.004;2023-02-15T14:09:19;49.25;;;31.42;;
45065;SDS011;30830;53.704;10.004;2023-02-15T14:12:49;45.95;;;30.58;;
45065;SDS011;30830;53.704;10.004;2023-02-15T14:15:12;43.45;;;29.13;;
45065;SDS011;30830;53.704;10.004;2023-02-15T14:22:51;53.88;;;33.78;;
45065;SDS011;30830;53.704;10.004;2023-02-15T14:27:59;52.80;;;33.50;;
45065;SDS011;30830;53.704;10.004;2023-02-15T14:30:30;53.13;;;35.58;;
45065;SDS011;30830;53.704;10.004;2023-02-15T14:35:40;48.97;;;31.63;;
45065;SDS011;30830;53.704;10.004;2023-02-15T14:40:45;45.40;;;30.27;;
45065;SDS011;30830;53.704;10.004;2023-02-15T14:46:48;50.17;;;33.13;;
45065;SDS011;30830;53.704;10.004;2023-02-15T14:49:23;42.85;;;31.45;;
45065;SDS011;30830;53.704;10.004;2023-02-15T14:52:06;50.70;;;34.15;;
45065;SDS011;30830;53.704;10.004;2023-02-15T15:15:32;40.60;;;27.95;;
45065;SDS011;30830;53.704;10.004;2023-02-15T15:22:50;40.30;;;28.05;;
45065;SDS011;30830;53.704;10.004;2023-02-15T15:25:41;45.67;;;30.00;;
45065;SDS011;30830;53.704;10.004;2023-02-15T15:45:31;46.72;;;30.60;;
45065;SDS011;30830;53.704;10.004;2023-02-15T15:50:40;44.40;;;30.75;;
45065;SDS011;30830;53.704;10.004;2023-02-15T15:53:06;43.47;;;28.75;;
45065;SDS011;30830;53.704;10.004;2023-02-15T15:55:49;40.63;;;29.52;;
45065;SDS011;30830;53.704;10.004;2023-02-15T15:58:20;43.70;;;29.25;;
45065;SDS011;30830;53.704;10.004;2023-02-15T16:00:47;44.97;;;30.60;;
45065;SDS011;30830;53.704;10.004;2023-02-15T16:03:16;41.97;;;27.98;;
45065;SDS011;30830;53.704;10.004;2023-02-15T16:05:48;40.20;;;26.60;;
45065;SDS011;30830;53.704;10.004;2023-02-15T16:08:31;43.20;;;29.98;;
45065;SDS011;30830;53.704;10.004;2023-02-15T16:11:13;42.35;;;29.33;;
45065;SDS011;30830;53.704;10.004;2023-02-15T16:13:45;38.28;;;27.63;;
45065;SDS011;30830;53.704;10.004;2023-02-15T16:16:12;39.75;;;28.05;;
45065;SDS011;30830;53.704;10.004;2023-02-15T16:18:44;41.38;;;27.58;;
45065;SDS011;30830;53.704;10.004;2023-02-15T16:21:17;39.17;;;26.55;;
45065;SDS011;30830;53.704;10.004;2023-02-15T16:23:49;40.88;;;27.67;;
45065;SDS011;30830;53.704;10.004;2023-02-15T16:29:13;37.75;;;26.45;;
45065;SDS011;30830;53.704;10.004;2023-02-15T16:31:55;37.20;;;26.00;;
45065;SDS011;30830;53.704;10.004;2023-02-15T16:34:39;37.58;;;24.80;;
45065;SDS011;30830;53.704;10.004;2023-02-15T16:37:18;33.10;;;24.02;;
45065;SDS011;30830;53.704;10.004;2023-02-15T16:39:50;33.53;;;23.63;;
45065;SDS011;30830;53.704;10.004;2023-02-15T16:42:17;35.42;;;24.48;;
45065;SDS011;30830;53.704;10.004;2023-02-15T16:44:45;37.47;;;23.85;;
45065;SDS011;30830;53.704;10.004;2023-02-15T16:47:20;34.85;;;23.80;;
45065;SDS011;30830;53.704;10.004;2023-02-15T16:49:51;32.45;;;22.88;;
45065;SDS011;30830;53.704;10.004;2023-02-15T16:52:20;37.45;;;26.08;;
45065;SDS011;30830;53.704;10.004;2023-02-15T16:54:49;37.72;;;22.77;;
45065;SDS011;30830;53.704;10.004;2023-02-15T16:57:24;32.65;;;23.17;;
45065;SDS011;30830;53.704;10.004;2023-02-15T16:59:54;36.08;;;25.10;;
45065;SDS011;30830;53.704;10.004;2023-02-15T17:02:26;35.67;;;22.60;;
45065;SDS011;30830;53.704;10.004;2023-02-15T17:05:16;31.58;;;22.35;;
45065;SDS011;30830;53.704;10.004;2023-02-15T17:07:51;31.48;;;22.80;;
45065;SDS011;30830;53.704;10.004;2023-02-15T17:10:37;33.40;;;23.85;;
45065;SDS011;30830;53.704;10.004;2023-02-15T17:13:13;31.75;;;22.73;;
45065;SDS011;30830;53.704;10.004;2023-02-15T17:18:15;27.08;;;20.65;;
45065;SDS011;30830;53.704;10.004;2023-02-15T17:20:47;33.13;;;23.42;;
45065;SDS011;30830;53.704;10.004;2023-02-15T17:23:22;30.15;;;21.45;;
45065;SDS011;30830;53.704;10.004;2023-02-15T17:26:50;32.28;;;23.05;;
45065;SDS011;30830;53.704;10.004;2023-02-15T17:29:01;29.38;;;21.42;;
45065;SDS011;30830;53.704;10.004;2023-02-15T17:31:39;32.65;;;22.55;;
45065;SDS011;30830;53.704;10.004;2023-02-15T17:34:05;32.22;;;22.33;;
45065;SDS011;30830;53.704;10.004;2023-02-15T17:36:30;29.45;;;22.02;;
45065;SDS011;30830;53.704;10.004;2023-02-15T17:41:32;32.17;;;23.27;;
45065;SDS011;30830;53.704;10.004;2023-02-15T17:43:59;32.05;;;21.52;;
45065;SDS011;30830;53.704;10.004;2023-02-15T17:46:26;31.30;;;21.98;;